sensor_id;sensor_type;location;lat;lon;timestamp;pressure;altitude;pressure_sealevel;temperature;humidity
6938;BME280;40040;42.706;23.372;2022-09-17T00:01:45;148407.63;;;17.18;100.00
6938;BME280;40040;42.706;23.372;2022-09-17T00:04:14;148429.94;;;17.27;100.00
6938;BME280;40040;42.706;23.372;2022-09-17T00:06:40;148429.94;;;17.27;100.00
6938;BME280;40040;42.706;23.372;2022-09-17T00:09:08;148434.91;;;17.29;100.00
6938;BME280;40040;42.706;23.372;2022-09-17T00:11:37;148444.81;;;17.33;100.00
6938;BME280;40040;42.706;23.372;2022-09-17T00:14:06;148438.63;;;17.31;100.00
6938;BME280;40040;42.706;23.372;2022-09-17T00:16:37;148456.00;;;17.38;100.00
6938;BME280;40040;42.706;23.372;2022-09-17T00:19:05;148420.03;;;17.23;100.00
6938;BME280;40040;42.706;23.372;2022-09-17T00:21:36;148415.06;;;17.21;100.00
6938;BME280;40040;42.706;23.372;2022-09-17T00:24:04;148405.16;;;17.17;100.00
6938;BME280;40040;42.706;23.372;2022-09-17T00:26:33;148375.38;;;17.05;100.00
6938;BME280;40040;42.706;23.372;2022-09-17T00:29:01;148437.38;;;17.30;100.00
6938;BME280;40040;42.706;23.372;2022-09-17T00:31:29;148427.44;;;17.26;100.00
6938;BME280;40040;42.706;23.372;2022-09-17T00:33:57;148407.63;;;17.18;100.00
6938;BME280;40040;42.706;23.372;2022-09-17T00:36:25;148387.81;;;17.10;100.00
6938;BME280;40040;42.706;23.372;2022-09-17T00:38:55;148393.97;;;17.13;100.00
6938;BME280;40040;42.706;23.372;2022-09-17T00:41:24;148402.66;;;17.16;100.00
6938;BME280;40040;42.706;23.372;2022-09-17T00:43:52;148423.72;;;17.25;100.00
6938;BME280;40040;42.706;23.372;2022-09-17T00:46:30;148395.22;;;17.13;100.00
6938;BME280;40040;42.706;23.372;2022-09-17T00:49:01;148400.19;;;17.15;100.00
6938;BME280;40040;42.706;23.372;2022-09-17T00:51:33;148417.56;;;17.22;100.00
6938;BME280;40040;42.706;23.372;2022-09-17T00:54:05;148397.69;;;17.14;100.00
6938;BME280;40040;42.706;23.372;2022-09-17T00:56:34;148395.22;;;17.13;100.00
6938;BME280;40040;42.706;23.372;2022-09-17T00:59:02;148387.81;;;17.10;100.00
6938;BME280;40040;42.706;23.372;2022-09-17T01:01:30;148400.19;;;17.15;100.00
6938;BME280;40040;42.706;23.372;2022-09-17T01:03:58;148402.66;;;17.16;100.00
6938;BME280;40040;42.706;23.372;2022-09-17T01:06:32;148405.16;;;17.17;100.00
6938;BME280;40040;42.706;23.372;2022-09-17T01:09:19;148415.06;;;17.21;100.00
6938;BME280;40040;42.706;23.372;2022-09-17T01:12:11;148418.75;;;17.23;100.00
6938;BME280;40040;42.706;23.372;2022-09-17T01:14:51;148380.34;;;17.07;100.00
6938;BME280;40040;42.706;23.372;2022-09-17T01:17:25;148375.38;;;17.05;100.00
6938;BME280;40040;42.706;23.372;2022-09-17T01:23:08;148393.97;;;17.13;100.00
6938;BME280;40040;42.706;23.372;2022-09-17T01:25:50;148385.31;;;17.09;100.00
6938;BME280;40040;42.706;23.372;2022-09-17T01:28:40;148415.06;;;17.21;100.00
6938;BME280;40040;42.706;23.372;2022-09-17T01:31:21;148417.56;;;17.22;100.00
6938;BME280;40040;42.706;23.372;2022-09-17T01:33:57;148408.88;;;17.19;100.00
6938;BME280;40040;42.706;23.372;2022-09-17T01:36:37;148359.25;;;16.99;100.00
6938;BME280;40040;42.706;23.372;2022-09-17T01:39:17;148377.88;;;17.06;100.00
6938;BME280;40040;42.706;23.372;2022-09-17T01:41:52;148315.88;;;16.81;100.00
6938;BME280;40040;42.706;23.372;2022-09-17T01:44:25;148353.09;;;16.96;100.00
6938;BME280;40040;42.706;23.372;2022-09-17T01:46:57;148345.63;;;16.93;100.00
6938;BME280;40040;42.706;23.372;2022-09-17T01:49:29;148323.34;;;16.84;100.00
6938;BME280;40040;42.706;23.372;2022-09-17T01:51:57;148343.16;;;16.92;100.00
6938;BME280;40040;42.706;23.372;2022-09-17T01:54:29;148339.44;;;16.91;100.00
6938;BME280;40040;42.706;23.372;2022-09-17T01:57:01;148353.09;;;16.96;100.00
6938;BME280;40040;42.706;23.372;2022-09-17T01:59:33;148332.03;;;16.88;100.00
6938;BME280;40040;42.706;23.372;2022-09-17T02:02:07;148367.94;;;17.02;100.00
6938;BME280;40040;42.706;23.372;2022-09-17T02:04:42;148353.09;;;16.96;100.00
6938;BME280;40040;42.706;23.372;2022-09-17T02:07:15;148343.16;;;16.92;100.00
6938;BME280;40040;42.706;23.372;2022-09-17T02:09:49;148313.41;;;16.80;100.00
6938;BME280;40040;42.706;23.372;2022-09-17T02:12:23;148312.16;;;16.79;100.00
6938;BME280;40040;42.706;23.372;2022-09-17T02:14:56;148299.78;;;16.74;100.00
6938;BME280;40040;42.706;23.372;2022-09-17T02:17:30;148307.19;;;16.77;100.00
6938;BME280;40040;42.706;23.372;2022-09-17T02:19:58;148303.47;;;16.76;100.00
6938;BME280;40040;42.706;23.372;2022-09-17T02:22:29;148301.03;;;16.75;100.00
6938;BME280;40040;42.706;23.372;2022-09-17T02:25:03;148294.81;;;16.72;100.00
6938;BME280;40040;42.706;23.372;2022-09-17T02:27:37;148306.00;;;16.77;100.00
6938;BME280;40040;42.706;23.372;2022-09-17T02:30:08;148310.91;;;16.79;100.00
6938;BME280;40040;42.706;23.372;2022-09-17T02:32:36;148315.88;;;16.81;100.00
6938;BME280;40040;42.706;23.372;2022-09-17T02:35:04;148329.50;;;16.86;100.00
6938;BME280;40040;42.706;23.372;2022-09-17T02:37:32;148333.22;;;16.88;100.00
6938;BME280;40040;42.706;23.372;2022-09-17T02:40:00;148335.72;;;16.89;100.00
6938;BME280;40040;42.706;23.372;2022-09-17T02:42:31;148360.53;;;16.99;100.00
6938;BME280;40040;42.706;23.372;2022-09-17T02:45:05;148348.13;;;16.94;100.00
6938;BME280;40040;42.706;23.372;2022-09-17T02:47:51;148318.38;;;16.82;100.00
6938;BME280;40040;42.706;23.372;2022-09-17T02:50:31;148296.06;;;16.73;100.00
6938;BME280;40040;42.706;23.372;2022-09-17T02:53:09;148275.00;;;16.64;100.00
6938;BME280;40040;42.706;23.372;2022-09-17T02:55:44;148273.75;;;16.64;100.00
6938;BME280;40040;42.706;23.372;2022-09-17T02:58:21;148251.41;;;16.55;100.00
6938;BME280;40040;42.706;23.372;2022-09-17T03:00:51;148164.63;;;16.20;100.00
6938;BME280;40040;42.706;23.372;2022-09-17T03:03:25;148209.25;;;16.38;100.00
6938;BME280;40040;42.706;23.372;2022-09-17T03:05:54;148211.72;;;16.39;100.00
6938;BME280;40040;42.706;23.372;2022-09-17T03:08:27;148234.06;;;16.48;100.00
6938;BME280;40040;42.706;23.372;2022-09-17T03:10:55;148253.94;;;16.56;100.00
6938;BME280;40040;42.706;23.372;2022-09-17T03:13:22;148275.00;;;16.64;100.00
6938;BME280;40040;42.706;23.372;2022-09-17T03:15:49;148215.47;;;16.40;100.00
6938;BME280;40040;42.706;23.372;2022-09-17T03:18:16;148214.22;;;16.40;100.00
6938;BME280;40040;42.706;23.372;2022-09-17T03:20:44;148298.50;;;16.74;100.00
6938;BME280;40040;42.706;23.372;2022-09-17T03:23:12;148312.16;;;16.79;100.00
6938;BME280;40040;42.706;23.372;2022-09-17T03:25:38;148329.50;;;16.86;100.00
6938;BME280;40040;42.706;23.372;2022-09-17T03:28:05;148340.69;;;16.91;100.00
6938;BME280;40040;42.706;23.372;2022-09-17T03:30:32;148353.09;;;16.96;100.00
6938;BME280;40040;42.706;23.372;2022-09-17T03:32:59;148343.16;;;16.92;100.00
6938;BME280;40040;42.706;23.372;2022-09-17T03:35:26;148343.16;;;16.92;100.00
6938;BME280;40040;42.706;23.372;2022-09-17T03:37:54;148346.88;;;16.94;100.00
6938;BME280;40040;42.706;23.372;2022-09-17T03:40:21;148278.69;;;16.66;100.00
6938;BME280;40040;42.706;23.372;2022-09-17T03:42:48;148320.84;;;16.83;100.00
6938;BME280;40040;42.706;23.372;2022-09-17T03:45:15;148324.56;;;16.84;100.00
6938;BME280;40040;42.706;23.372;2022-09-17T03:47:42;148318.38;;;16.82;100.00
6938;BME280;40040;42.706;23.372;2022-09-17T03:50:08;148308.44;;;16.78;100.00
6938;BME280;40040;42.706;23.372;2022-09-17T03:52:35;148248.97;;;16.54;100.00
6938;BME280;40040;42.706;23.372;2022-09-17T03:55:04;148341.91;;;16.92;100.00
6938;BME280;40040;42.706;23.372;2022-09-17T03:57:32;148350.59;;;16.95;100.00
6938;BME280;40040;42.706;23.372;2022-09-17T03:59:58;148325.81;;;16.85;100.00
6938;BME280;40040;42.706;23.372;2022-09-17T04:02:25;148336.94;;;16.89;100.00
6938;BME280;40040;42.706;23.372;2022-09-17T04:04:52;148283.66;;;16.68;100.00
6938;BME280;40040;42.706;23.372;2022-09-17T04:07:19;148379.13;;;17.07;100.00
6938;BME280;40040;42.706;23.372;2022-09-17T04:09:46;148387.81;;;17.10;100.00
6938;BME280;40040;42.706;23.372;2022-09-17T04:12:14;148385.31;;;17.09;100.00
6938;BME280;40040;42.706;23.372;2022-09-17T04:14:41;148379.13;;;17.07;100.00
6938;BME280;40040;42.706;23.372;2022-09-17T04:17:07;148318.38;;;16.82;100.00
6938;BME280;40040;42.706;23.372;2022-09-17T04:19:34;148415.06;;;17.21;100.00
6938;BME280;40040;42.706;23.372;2022-09-17T04:22:01;148432.41;;;17.28;100.00
6938;BME280;40040;42.706;23.372;2022-09-17T04:24:29;148434.91;;;17.29;100.00
6938;BME280;40040;42.706;23.372;2022-09-17T04:26:56;148454.75;;;17.37;100.00
6938;BME280;40040;42.706;23.372;2022-09-17T04:29:24;148475.81;;;17.46;100.00
6938;BME280;40040;42.706;23.372;2022-09-17T04:31:51;148469.66;;;17.43;100.00
6938;BME280;40040;42.706;23.372;2022-09-17T04:34:18;148474.56;;;17.45;100.00
6938;BME280;40040;42.706;23.372;2022-09-17T04:36:45;148479.59;;;17.47;100.00
6938;BME280;40040;42.706;23.372;2022-09-17T04:39:12;148469.66;;;17.43;100.00
6938;BME280;40040;42.706;23.372;2022-09-17T04:41:39;148489.50;;;17.51;100.00
6938;BME280;40040;42.706;23.372;2022-09-17T04:44:06;148482.09;;;17.48;100.00
6938;BME280;40040;42.706;23.372;2022-09-17T04:46:34;148491.97;;;17.52;100.00
6938;BME280;40040;42.706;23.372;2022-09-17T04:49:01;148501.91;;;17.56;100.00
6938;BME280;40040;42.706;23.372;2022-09-17T04:51:27;148498.19;;;17.55;100.00
6938;BME280;40040;42.706;23.372;2022-09-17T04:53:54;148508.13;;;17.59;100.00
6938;BME280;40040;42.706;23.372;2022-09-17T04:56:21;148503.16;;;17.57;100.00
6938;BME280;40040;42.706;23.372;2022-09-17T04:58:48;148496.94;;;17.54;100.00
6938;BME280;40040;42.706;23.372;2022-09-17T05:01:15;148499.44;;;17.55;100.00
6938;BME280;40040;42.706;23.372;2022-09-17T05:03:44;148496.94;;;17.54;100.00
6938;BME280;40040;42.706;23.372;2022-09-17T05:06:11;148484.53;;;17.49;100.00
6938;BME280;40040;42.706;23.372;2022-09-17T05:08:38;148491.97;;;17.52;100.00
6938;BME280;40040;42.706;23.372;2022-09-17T05:11:05;148482.09;;;17.48;100.00
6938;BME280;40040;42.706;23.372;2022-09-17T05:13:32;148510.59;;;17.60;100.00
6938;BME280;40040;42.706;23.372;2022-09-17T05:15:59;148531.69;;;17.68;100.00
6938;BME280;40040;42.706;23.372;2022-09-17T05:18:26;148554.00;;;17.77;100.00
6938;BME280;40040;42.706;23.372;2022-09-17T05:20:54;148573.84;;;17.85;100.00
6938;BME280;40040;42.706;23.372;2022-09-17T05:23:21;148591.22;;;17.92;100.00
6938;BME280;40040;42.706;23.372;2022-09-17T05:25:48;148598.69;;;17.95;100.00
6938;BME280;40040;42.706;23.372;2022-09-17T05:28:17;148618.53;;;18.04;100.00
6938;BME280;40040;42.706;23.372;2022-09-17T05:30:45;148618.53;;;18.04;100.00
6938;BME280;40040;42.706;23.372;2022-09-17T05:33:12;148593.72;;;17.93;100.00
6938;BME280;40040;42.706;23.372;2022-09-17T05:35:39;148591.22;;;17.92;100.00
6938;BME280;40040;42.706;23.372;2022-09-17T05:38:10;148606.13;;;17.98;100.00
6938;BME280;40040;42.706;23.372;2022-09-17T05:40:37;148616.06;;;18.03;100.00
6938;BME280;40040;42.706;23.372;2022-09-17T05:43:06;148535.38;;;17.70;100.00
6938;BME280;40040;42.706;23.372;2022-09-17T05:45:34;148630.91;;;18.09;100.00
6938;BME280;40040;42.706;23.372;2022-09-17T05:48:04;148581.31;;;17.88;100.00
6938;BME280;40040;42.706;23.372;2022-09-17T05:50:32;148645.84;;;18.15;100.00
6938;BME280;40040;42.706;23.372;2022-09-17T05:53:03;148640.84;;;18.13;100.00
6938;BME280;40040;42.706;23.372;2022-09-17T05:55:32;148644.56;;;18.14;100.00
6938;BME280;40040;42.706;23.372;2022-09-17T05:58:07;148628.47;;;18.08;100.00
6938;BME280;40040;42.706;23.372;2022-09-17T06:00:35;148635.88;;;18.11;100.00
6938;BME280;40040;42.706;23.372;2022-09-17T06:03:03;148647.03;;;18.15;100.00
6938;BME280;40040;42.706;23.372;2022-09-17T06:05:30;148648.28;;;18.16;100.00
6938;BME280;40040;42.706;23.372;2022-09-17T06:07:57;148648.28;;;18.16;100.00
6938;BME280;40040;42.706;23.372;2022-09-17T06:10:25;148633.44;;;18.10;100.00
6938;BME280;40040;42.706;23.372;2022-09-17T06:12:57;148683.03;;;18.30;100.00
6938;BME280;40040;42.706;23.372;2022-09-17T06:15:25;148627.22;;;18.07;100.00
6938;BME280;40040;42.706;23.372;2022-09-17T06:17:54;148695.44;;;18.35;100.00
6938;BME280;40040;42.706;23.372;2022-09-17T06:20:21;148690.47;;;18.33;100.00
6938;BME280;40040;42.706;23.372;2022-09-17T06:22:48;148688.00;;;18.32;100.00
6938;BME280;40040;42.706;23.372;2022-09-17T06:25:15;148674.34;;;18.26;100.00
6938;BME280;40040;42.706;23.372;2022-09-17T06:27:42;148675.59;;;18.27;100.00
6938;BME280;40040;42.706;23.372;2022-09-17T06:30:12;148676.81;;;18.27;100.00
6938;BME280;40040;42.706;23.372;2022-09-17T06:32:39;148678.06;;;18.28;100.00
6938;BME280;40040;42.706;23.372;2022-09-17T06:35:07;148670.63;;;18.25;100.00
6938;BME280;40040;42.706;23.372;2022-09-17T06:37:35;148688.00;;;18.32;100.00
6938;BME280;40040;42.706;23.372;2022-09-17T06:40:05;148685.50;;;18.31;100.00
6938;BME280;40040;42.706;23.372;2022-09-17T06:42:33;148692.97;;;18.34;100.00
6938;BME280;40040;42.706;23.372;2022-09-17T06:45:00;148706.63;;;18.39;100.00
6938;BME280;40040;42.706;23.372;2022-09-17T06:47:32;148694.19;;;18.34;100.00
6938;BME280;40040;42.706;23.372;2022-09-17T06:50:00;148696.69;;;18.35;100.00
6938;BME280;40040;42.706;23.372;2022-09-17T06:52:27;148692.97;;;18.34;100.00
6938;BME280;40040;42.706;23.372;2022-09-17T06:54:54;148702.88;;;18.38;100.00
6938;BME280;40040;42.706;23.372;2022-09-17T06:57:22;148720.28;;;18.45;100.00
6938;BME280;40040;42.706;23.372;2022-09-17T06:59:49;148707.84;;;18.40;100.00
6938;BME280;40040;42.706;23.372;2022-09-17T07:02:16;148755.06;;;18.59;100.00
6938;BME280;40040;42.706;23.372;2022-09-17T07:04:45;148757.56;;;18.60;100.00
6938;BME280;40040;42.706;23.372;2022-09-17T07:07:12;148751.34;;;18.57;100.00
6938;BME280;40040;42.706;23.372;2022-09-17T07:09:39;148654.50;;;18.18;100.00
6938;BME280;40040;42.706;23.372;2022-09-17T07:12:07;148783.63;;;18.70;100.00
6938;BME280;40040;42.706;23.372;2022-09-17T07:14:34;148792.31;;;18.74;100.00
6938;BME280;40040;42.706;23.372;2022-09-17T07:17:02;148824.56;;;18.87;100.00
6938;BME280;40040;42.706;23.372;2022-09-17T07:19:29;148848.19;;;18.96;100.00
6938;BME280;40040;42.706;23.372;2022-09-17T07:21:57;148868.03;;;19.04;100.00
6938;BME280;40040;42.706;23.372;2022-09-17T07:24:24;148875.47;;;19.07;100.00
6938;BME280;40040;42.706;23.372;2022-09-17T07:26:52;148890.38;;;19.14;100.00
6938;BME280;40040;42.706;23.372;2022-09-17T07:29:19;148916.47;;;19.24;100.00
6938;BME280;40040;42.706;23.372;2022-09-17T07:31:48;148946.31;;;19.36;100.00
6938;BME280;40040;42.706;23.372;2022-09-17T07:34:15;148952.50;;;19.39;100.00
6938;BME280;40040;42.706;23.372;2022-09-17T07:36:42;148977.38;;;19.49;100.00
6938;BME280;40040;42.706;23.372;2022-09-17T07:39:12;149028.28;;;19.69;100.00
6938;BME280;40040;42.706;23.372;2022-09-17T07:41:39;149069.25;;;19.86;100.00
6938;BME280;40040;42.706;23.372;2022-09-17T07:44:06;149049.38;;;19.78;100.00
6938;BME280;40040;42.706;23.372;2022-09-17T07:46:34;149152.53;;;20.20;100.00
6938;BME280;40040;42.706;23.372;2022-09-17T07:49:02;149219.69;;;20.47;100.00
6938;BME280;40040;42.706;23.372;2022-09-17T07:51:29;149279.31;;;20.71;100.00
6938;BME280;40040;42.706;23.372;2022-09-17T07:53:57;149329.03;;;20.91;100.00
6938;BME280;40040;42.706;23.372;2022-09-17T07:56:26;149264.38;;;20.65;100.00
6938;BME280;40040;42.706;23.372;2022-09-17T07:58:54;149411.13;;;21.24;100.00
6938;BME280;40040;42.706;23.372;2022-09-17T08:01:22;149373.84;;;21.09;100.00
6938;BME280;40040;42.706;23.372;2022-09-17T08:03:50;149505.63;;;21.62;100.00
6938;BME280;40040;42.706;23.372;2022-09-17T08:06:20;149565.38;;;21.86;100.00
6938;BME280;40040;42.706;23.372;2022-09-17T08:08:49;149499.44;;;21.60;100.00
6938;BME280;40040;42.706;23.372;2022-09-17T08:11:17;149445.94;;;21.38;100.00
6938;BME280;40040;42.706;23.372;2022-09-17T08:13:48;149555.47;;;21.82;100.00
6938;BME280;40040;42.706;23.372;2022-09-17T08:16:17;149565.38;;;21.86;100.00
6938;BME280;40040;42.706;23.372;2022-09-17T08:18:45;149432.25;;;21.33;100.00
6938;BME280;40040;42.706;23.372;2022-09-17T08:21:14;149560.44;;;21.84;100.00
6938;BME280;40040;42.706;23.372;2022-09-17T08:23:43;149589.03;;;21.96;100.00
6938;BME280;40040;42.706;23.372;2022-09-17T08:26:12;149545.50;;;21.78;100.00
6938;BME280;40040;42.706;23.372;2022-09-17T08:28:43;149557.94;;;21.83;100.00
6938;BME280;40040;42.706;23.372;2022-09-17T08:31:13;149605.19;;;22.02;100.00
6938;BME280;40040;42.706;23.372;2022-09-17T08:33:41;149742.16;;;22.58;100.00
6938;BME280;40040;42.706;23.372;2022-09-17T08:36:14;149795.63;;;22.79;100.00
6938;BME280;40040;42.706;23.372;2022-09-17T08:38:42;149793.19;;;22.78;100.00
6938;BME280;40040;42.706;23.372;2022-09-17T08:41:18;149831.75;;;22.94;100.00
6938;BME280;40040;42.706;23.372;2022-09-17T08:43:56;149847.94;;;23.00;100.00
6938;BME280;40040;42.706;23.372;2022-09-17T08:46:31;149874.06;;;23.11;100.00
6938;BME280;40040;42.706;23.372;2022-09-17T08:49:04;149811.81;;;22.86;100.00
6938;BME280;40040;42.706;23.372;2022-09-17T08:51:41;149730.88;;;22.53;100.00
6938;BME280;40040;42.706;23.372;2022-09-17T08:54:18;149745.88;;;22.59;100.00
6938;BME280;40040;42.706;23.372;2022-09-17T08:57:02;149774.50;;;22.71;100.00
6938;BME280;40040;42.706;23.372;2022-09-17T08:59:36;149729.63;;;22.53;100.00
6938;BME280;40040;42.706;23.372;2022-09-17T09:02:18;149701.00;;;22.41;100.00
6938;BME280;40040;42.706;23.372;2022-09-17T09:05:02;149620.16;;;22.08;100.00
6938;BME280;40040;42.706;23.372;2022-09-17T09:07:36;149659.97;;;22.24;100.00
6938;BME280;40040;42.706;23.372;2022-09-17T09:10:14;149674.88;;;22.30;100.00
6938;BME280;40040;42.706;23.372;2022-09-17T09:12:43;149701.00;;;22.41;100.00
6938;BME280;40040;42.706;23.372;2022-09-17T09:15:30;149582.78;;;21.93;100.00
6938;BME280;40040;42.706;23.372;2022-09-17T09:18:04;149679.88;;;22.32;100.00
6938;BME280;40040;42.706;23.372;2022-09-17T09:20:44;149643.75;;;22.18;100.00
6938;BME280;40040;42.706;23.372;2022-09-17T09:23:18;149637.56;;;22.15;100.00
6938;BME280;40040;42.706;23.372;2022-09-17T09:25:52;149659.97;;;22.24;100.00
6938;BME280;40040;42.706;23.372;2022-09-17T09:28:41;149687.31;;;22.35;100.00
6938;BME280;40040;42.706;23.372;2022-09-17T09:31:23;149689.84;;;22.37;100.00
6938;BME280;40040;42.706;23.372;2022-09-17T09:33:55;149692.31;;;22.38;100.00
6938;BME280;40040;42.706;23.372;2022-09-17T09:36:27;149682.34;;;22.33;100.00
6938;BME280;40040;42.706;23.372;2022-09-17T09:38:59;149594.03;;;21.98;100.00
6938;BME280;40040;42.706;23.372;2022-09-17T09:41:31;149679.88;;;22.32;100.00
6938;BME280;40040;42.706;23.372;2022-09-17T09:44:04;149669.91;;;22.28;100.00
6938;BME280;40040;42.706;23.372;2022-09-17T09:46:53;149667.44;;;22.27;100.00
6938;BME280;40040;42.706;23.372;2022-09-17T09:49:36;149603.97;;;22.02;100.00
6938;BME280;40040;42.706;23.372;2022-09-17T09:52:15;149431.06;;;21.32;100.00
6938;BME280;40040;42.706;23.372;2022-09-17T09:54:55;149545.50;;;21.78;100.00
6938;BME280;40040;42.706;23.372;2022-09-17T09:57:33;149465.88;;;21.46;100.00
6938;BME280;40040;42.706;23.372;2022-09-17T10:00:32;149484.50;;;21.54;100.00
6938;BME280;40040;42.706;23.372;2022-09-17T10:03:05;149336.47;;;20.94;100.00
6938;BME280;40040;42.706;23.372;2022-09-17T10:05:38;149381.28;;;21.12;100.00
6938;BME280;40040;42.706;23.372;2022-09-17T10:08:12;149336.47;;;20.94;100.00
6938;BME280;40040;42.706;23.372;2022-09-17T10:10:53;149289.22;;;20.75;100.00
6938;BME280;40040;42.706;23.372;2022-09-17T10:13:21;149239.53;;;20.55;100.00
6938;BME280;40040;42.706;23.372;2022-09-17T10:15:48;149213.44;;;20.44;100.00
6938;BME280;40040;42.706;23.372;2022-09-17T10:18:17;149227.13;;;20.50;100.00
6938;BME280;40040;42.706;23.372;2022-09-17T10:20:59;149189.81;;;20.35;100.00
6938;BME280;40040;42.706;23.372;2022-09-17T10:23:28;149131.38;;;20.11;100.00
6938;BME280;40040;42.706;23.372;2022-09-17T10:25:56;148972.38;;;19.47;100.00
6938;BME280;40040;42.706;23.372;2022-09-17T10:28:30;148989.78;;;19.54;100.00
6938;BME280;40040;42.706;23.372;2022-09-17T10:31:00;148953.75;;;19.39;100.00
6938;BME280;40040;42.706;23.372;2022-09-17T10:33:30;148962.44;;;19.43;100.00
6938;BME280;40040;42.706;23.372;2022-09-17T10:36:03;148946.31;;;19.36;100.00
6938;BME280;40040;42.706;23.372;2022-09-17T10:38:35;148940.06;;;19.34;100.00
6938;BME280;40040;42.706;23.372;2022-09-17T10:41:08;148915.19;;;19.24;100.00
6938;BME280;40040;42.706;23.372;2022-09-17T10:43:36;148899.06;;;19.17;100.00
6938;BME280;40040;42.706;23.372;2022-09-17T10:46:04;148881.69;;;19.10;100.00
6938;BME280;40040;42.706;23.372;2022-09-17T10:48:38;148870.53;;;19.05;100.00
6938;BME280;40040;42.706;23.372;2022-09-17T10:51:08;148824.56;;;18.87;100.00
6938;BME280;40040;42.706;23.372;2022-09-17T10:53:58;148877.97;;;19.08;100.00
6938;BME280;40040;42.706;23.372;2022-09-17T10:56:33;148895.34;;;19.16;100.00
6938;BME280;40040;42.706;23.372;2022-09-17T10:59:13;148885.41;;;19.12;100.00
6938;BME280;40040;42.706;23.372;2022-09-17T11:01:56;148928.88;;;19.29;100.00
6938;BME280;40040;42.706;23.372;2022-09-17T11:04:35;148991.03;;;19.54;100.00
6938;BME280;40040;42.706;23.372;2022-09-17T11:07:28;149034.47;;;19.72;100.00
6938;BME280;40040;42.706;23.372;2022-09-17T11:10:02;149049.38;;;19.78;100.00
6938;BME280;40040;42.706;23.372;2022-09-17T11:12:40;149086.63;;;19.93;100.00
6938;BME280;40040;42.706;23.372;2022-09-17T11:15:23;149073.00;;;19.87;100.00
6938;BME280;40040;42.706;23.372;2022-09-17T11:21:08;149136.34;;;20.13;100.00
6938;BME280;40040;42.706;23.372;2022-09-17T11:24:08;149184.88;;;20.33;100.00
6938;BME280;40040;42.706;23.372;2022-09-17T11:26:44;149214.69;;;20.45;100.00
6938;BME280;40040;42.706;23.372;2022-09-17T11:29:28;149233.31;;;20.52;100.00
6938;BME280;40040;42.706;23.372;2022-09-17T11:32:09;149260.66;;;20.63;100.00
6938;BME280;40040;42.706;23.372;2022-09-17T11:34:41;149295.47;;;20.77;100.00
6938;BME280;40040;42.706;23.372;2022-09-17T11:37:17;149310.41;;;20.83;100.00
6938;BME280;40040;42.706;23.372;2022-09-17T11:39:52;149326.56;;;20.90;100.00
6938;BME280;40040;42.706;23.372;2022-09-17T11:42:26;149336.47;;;20.94;100.00
6938;BME280;40040;42.706;23.372;2022-09-17T11:44:57;149266.91;;;20.66;100.00
6938;BME280;40040;42.706;23.372;2022-09-17T11:47:30;149366.41;;;21.06;100.00
6938;BME280;40040;42.706;23.372;2022-09-17T11:50:01;149376.31;;;21.10;100.00
6938;BME280;40040;42.706;23.372;2022-09-17T11:52:32;149381.28;;;21.12;100.00
6938;BME280;40040;42.706;23.372;2022-09-17T11:55:10;149304.16;;;20.81;100.00
6938;BME280;40040;42.706;23.372;2022-09-17T11:57:44;149346.44;;;20.98;100.00
6938;BME280;40040;42.706;23.372;2022-09-17T12:00:15;149331.53;;;20.92;100.00
6938;BME280;40040;42.706;23.372;2022-09-17T12:02:50;149212.19;;;20.44;100.00
6938;BME280;40040;42.706;23.372;2022-09-17T12:05:20;149271.81;;;20.68;100.00
6938;BME280;40040;42.706;23.372;2022-09-17T12:07:54;149290.50;;;20.75;100.00
6938;BME280;40040;42.706;23.372;2022-09-17T12:10:38;149316.59;;;20.86;100.00
6938;BME280;40040;42.706;23.372;2022-09-17T12:13:18;149301.72;;;20.80;100.00
6938;BME280;40040;42.706;23.372;2022-09-17T12:15:54;149299.19;;;20.79;100.00
6938;BME280;40040;42.706;23.372;2022-09-17T12:18:31;149301.72;;;20.80;100.00
6938;BME280;40040;42.706;23.372;2022-09-17T12:21:04;149284.31;;;20.73;100.00
6938;BME280;40040;42.706;23.372;2022-09-17T12:23:36;149296.72;;;20.78;100.00
6938;BME280;40040;42.706;23.372;2022-09-17T12:26:17;149286.78;;;20.74;100.00
6938;BME280;40040;42.706;23.372;2022-09-17T12:28:51;149278.06;;;20.70;100.00
6938;BME280;40040;42.706;23.372;2022-09-17T12:31:28;149227.13;;;20.50;100.00
6938;BME280;40040;42.706;23.372;2022-09-17T12:34:03;149289.22;;;20.75;100.00
6938;BME280;40040;42.706;23.372;2022-09-17T12:36:41;149276.81;;;20.70;100.00
6938;BME280;40040;42.706;23.372;2022-09-17T12:39:36;149279.31;;;20.71;100.00
6938;BME280;40040;42.706;23.372;2022-09-17T12:42:20;149309.16;;;20.83;100.00
6938;BME280;40040;42.706;23.372;2022-09-17T12:45:06;149294.22;;;20.77;100.00
6938;BME280;40040;42.706;23.372;2022-09-17T12:47:49;149296.72;;;20.78;100.00
6938;BME280;40040;42.706;23.372;2022-09-17T12:50:29;149284.31;;;20.73;100.00
6938;BME280;40040;42.706;23.372;2022-09-17T12:53:14;149280.53;;;20.71;100.00
6938;BME280;40040;42.706;23.372;2022-09-17T12:55:59;149266.91;;;20.66;100.00
6938;BME280;40040;42.706;23.372;2022-09-17T12:58:41;149261.91;;;20.64;100.00
6938;BME280;40040;42.706;23.372;2022-09-17T13:01:18;149269.38;;;20.67;100.00
6938;BME280;40040;42.706;23.372;2022-09-17T13:03:51;149276.81;;;20.70;100.00
6938;BME280;40040;42.706;23.372;2022-09-17T13:09:46;149253.22;;;20.60;100.00
6938;BME280;40040;42.706;23.372;2022-09-17T13:12:26;149239.53;;;20.55;100.00
6938;BME280;40040;42.706;23.372;2022-09-17T13:15:37;149191.06;;;20.35;100.00